Time;durP1;ratioP1;P1;durP2;ratioP2;P2;SDS_P1;SDS_P2;PMS_P1;PMS_P2;Temp;Humidity;BMP_temperature;BMP_pressure;BME280_temperature;BME280_humidity;BME280_pressure;Samples;Min_cycle;Max_cycle;Signal;HPM_P1;HPM_P2
2022/03/29 00:01:11;;;;;;;38.92;22.63;;;7.50;99.90;;;;;;5029294;28;20037;-80
2022/03/29 00:03:38;;;;;;;36.85;21.65;;;7.40;99.90;;;;;;5022557;28;20161;-80
2022/03/29 00:06:04;;;;;;;36.15;21.83;;;7.40;99.90;;;;;;5026503;28;20492;-80
2022/03/29 00:08:29;;;;;;;32.95;21.27;;;7.30;99.90;;;;;;5030214;28;20064;-80
2022/03/29 00:11:00;;;;;;;34.38;21.77;;;7.30;99.90;;;;;;5021550;28;20029;-80
2022/03/29 00:13:26;;;;;;;35.80;22.23;;;7.30;99.90;;;;;;5021559;28;20115;-80
2022/03/29 00:15:51;;;;;;;40.60;22.48;;;7.20;99.90;;;;;;5028646;28;20496;-80
2022/03/29 00:18:20;;;;;;;36.20;22.13;;;7.20;99.90;;;;;;5018208;28;20038;-80
2022/03/29 00:20:46;;;;;;;38.65;23.02;;;7.20;99.90;;;;;;5028056;28;20034;-80
2022/03/29 00:23:11;;;;;;;42.03;23.42;;;7.10;99.90;;;;;;5021426;28;20116;-80
2022/03/29 00:25:37;;;;;;;36.67;22.10;;;7.10;99.90;;;;;;5032777;28;20021;-80
2022/03/29 00:28:03;;;;;;;38.00;21.98;;;7.00;99.90;;;;;;5029960;28;20044;-80
2022/03/29 00:30:28;;;;;;;40.40;23.83;;;7.00;99.90;;;;;;5025208;28;20018;-80
2022/03/29 00:32:57;;;;;;;37.25;21.98;;;7.00;99.90;;;;;;5027989;28;20087;-79
2022/03/29 00:35:30;;;;;;;38.70;22.55;;;7.00;99.90;;;;;;5027743;28;20034;-80
2022/03/29 00:37:56;;;;;;;37.47;22.67;;;6.90;99.90;;;;;;5032793;28;20029;-80
2022/03/29 00:40:22;;;;;;;38.33;22.48;;;6.90;99.90;;;;;;5031820;28;20036;-80
2022/03/29 00:42:52;;;;;;;43.60;24.13;;;6.80;99.90;;;;;;5027928;28;20041;-80
2022/03/29 00:45:21;;;;;;;41.67;25.27;;;6.80;99.90;;;;;;5027813;28;20511;-80
2022/03/29 00:47:47;;;;;;;38.85;24.00;;;6.80;99.90;;;;;;5016525;28;20068;-80
2022/03/29 00:50:12;;;;;;;39.40;23.42;;;6.80;99.90;;;;;;5020773;28;20501;-80
2022/03/29 00:52:39;;;;;;;42.22;25.23;;;6.70;99.90;;;;;;5020603;28;20044;-80
2022/03/29 00:55:12;;;;;;;42.95;25.25;;;6.70;99.90;;;;;;5022666;28;20041;-80
2022/03/29 00:57:38;;;;;;;43.83;26.45;;;6.70;99.90;;;;;;5017253;28;20038;-80
2022/03/29 01:00:07;;;;;;;48.55;27.85;;;6.70;99.90;;;;;;5023670;28;20079;-80
2022/03/29 01:02:32;;;;;;;50.17;27.70;;;6.70;99.90;;;;;;5026784;28;20046;-80
2022/03/29 01:05:01;;;;;;;45.63;27.38;;;6.60;99.90;;;;;;5021020;28;20032;-81
2022/03/29 01:07:27;;;;;;;43.03;25.25;;;6.60;99.90;;;;;;5025980;28;20493;-80
2022/03/29 01:09:56;;;;;;;43.83;25.45;;;6.60;99.90;;;;;;5031567;28;20068;-83
2022/03/29 01:12:24;;;;;;;42.97;25.08;;;6.50;99.90;;;;;;5027342;28;20146;-83
2022/03/29 01:14:51;;;;;;;42.08;24.88;;;6.50;99.90;;;;;;5024007;28;20099;-83
2022/03/29 01:20:32;;;;;;;43.97;25.02;;;6.40;99.90;;;;;;5024318;28;20032;-81
2022/03/29 01:23:01;;;;;;;44.95;25.73;;;6.40;99.90;;;;;;5024476;28;20029;-83
2022/03/29 01:25:30;;;;;;;45.58;26.60;;;6.30;99.90;;;;;;5026373;28;20398;-83
2022/03/29 01:27:56;;;;;;;50.45;29.23;;;6.40;99.90;;;;;;5023642;28;20508;-82
2022/03/29 01:30:24;;;;;;;47.95;28.50;;;6.30;99.90;;;;;;5030847;28;20034;-83
2022/03/29 01:32:54;;;;;;;53.72;28.75;;;6.30;99.90;;;;;;5031320;28;20034;-83
2022/03/29 01:35:22;;;;;;;51.88;27.63;;;6.30;99.90;;;;;;5023195;28;20112;-83
2022/03/29 01:37:53;;;;;;;56.17;29.15;;;6.30;99.90;;;;;;5019452;28;20028;-82
2022/03/29 01:40:20;;;;;;;50.15;27.85;;;6.30;99.90;;;;;;5024005;28;20490;-83
2022/03/29 01:42:57;;;;;;;46.58;27.63;;;6.20;99.90;;;;;;5026212;28;20418;-83
2022/03/29 01:45:28;;;;;;;47.83;27.65;;;6.20;99.90;;;;;;5019214;28;20029;-83
2022/03/29 01:47:56;;;;;;;44.95;27.95;;;6.20;99.90;;;;;;5013128;28;20034;-82
2022/03/29 01:50:22;;;;;;;51.78;29.88;;;6.20;99.90;;;;;;5031645;28;20116;-82
2022/03/29 01:52:48;;;;;;;55.42;31.35;;;6.10;99.90;;;;;;5019899;28;20490;-83
2022/03/29 01:55:21;;;;;;;54.50;29.92;;;6.10;99.90;;;;;;5019263;28;20117;-82
2022/03/29 01:57:47;;;;;;;55.03;32.13;;;6.10;99.90;;;;;;5023436;28;20025;-82
2022/03/29 02:03:01;;;;;;;59.00;32.45;;;6.10;99.90;;;;;;5030795;28;20045;-83
2022/03/29 02:05:33;;;;;;;59.30;33.35;;;6.10;99.90;;;;;;5020985;28;20450;-83
2022/03/29 02:08:01;;;;;;;57.33;31.42;;;6.20;99.90;;;;;;5012882;28;20527;-82
2022/03/29 02:10:28;;;;;;;64.05;35.25;;;6.20;99.90;;;;;;5016379;28;20032;-85
2022/03/29 02:12:56;;;;;;;57.95;31.70;;;6.20;99.90;;;;;;5003723;28;20034;-83
2022/03/29 02:15:21;;;;;;;67.22;36.17;;;6.30;99.90;;;;;;5020327;28;20034;-81
2022/03/29 02:17:51;;;;;;;64.07;35.78;;;6.30;99.90;;;;;;5029350;28;20120;-80
2022/03/29 02:20:18;;;;;;;70.57;37.42;;;6.40;99.90;;;;;;5025115;28;20025;-80
2022/03/29 02:22:44;;;;;;;66.47;35.75;;;6.40;99.90;;;;;;5012972;28;20081;-80
2022/03/29 02:25:13;;;;;;;65.80;36.03;;;6.50;99.90;;;;;;5027319;28;20034;-81
2022/03/29 02:27:43;;;;;;;74.88;38.72;;;6.50;99.90;;;;;;5016987;28;20116;-81
2022/03/29 02:30:13;;;;;;;78.32;39.83;;;6.50;99.90;;;;;;5019090;28;20116;-81
2022/03/29 02:32:41;;;;;;;69.95;37.92;;;6.50;99.90;;;;;;5018752;28;20033;-81
2022/03/29 02:35:09;;;;;;;75.03;38.38;;;6.60;99.90;;;;;;5023924;28;20033;-81
2022/03/29 02:37:37;;;;;;;80.18;39.75;;;6.60;99.90;;;;;;5017851;28;20436;-81
2022/03/29 02:40:05;;;;;;;74.13;38.03;;;6.60;99.90;;;;;;5034356;28;20116;-81
2022/03/29 02:42:33;;;;;;;74.38;38.42;;;6.60;99.90;;;;;;5030556;28;20386;-80
2022/03/29 02:44:59;;;;;;;79.72;39.78;;;6.60;99.90;;;;;;5026448;28;20029;-80
2022/03/29 02:47:24;;;;;;;72.40;36.13;;;6.60;99.90;;;;;;5034267;28;20029;-80
2022/03/29 02:49:50;;;;;;;78.60;38.25;;;6.60;99.90;;;;;;5029083;28;20068;-80
2022/03/29 02:52:15;;;;;;;78.63;39.22;;;6.70;99.90;;;;;;5025463;28;20381;-79
2022/03/29 02:54:41;;;;;;;75.43;38.03;;;6.70;99.90;;;;;;5022738;28;20503;-80
2022/03/29 02:57:10;;;;;;;88.40;40.13;;;6.70;99.90;;;;;;5027837;28;20112;-79
2022/03/29 02:59:35;;;;;;;82.85;42.60;;;6.70;99.90;;;;;;5027336;28;20418;-79
2022/03/29 03:02:01;;;;;;;78.38;38.97;;;6.70;99.90;;;;;;5030532;28;20124;-80
2022/03/29 03:04:29;;;;;;;80.72;38.08;;;6.60;99.90;;;;;;5019129;28;20417;-80
2022/03/29 03:06:54;;;;;;;75.07;38.75;;;6.60;99.90;;;;;;5026075;28;20025;-80
2022/03/29 03:09:20;;;;;;;73.32;36.55;;;6.60;99.90;;;;;;5031324;28;20108;-80
2022/03/29 03:11:45;;;;;;;86.90;37.92;;;6.50;99.90;;;;;;5031895;28;20104;-79
2022/03/29 03:14:12;;;;;;;81.45;37.67;;;6.50;99.90;;;;;;5018132;28;20072;-79
2022/03/29 03:16:41;;;;;;;71.25;37.35;;;6.50;99.90;;;;;;5019683;28;20486;-79
2022/03/29 03:19:07;;;;;;;77.90;37.25;;;6.40;99.90;;;;;;5025617;28;20121;-80
2022/03/29 03:21:32;;;;;;;72.20;35.38;;;6.50;99.90;;;;;;5025620;28;20413;-80
2022/03/29 03:23:58;;;;;;;88.82;36.15;;;6.50;99.90;;;;;;5020754;28;20026;-80
2022/03/29 03:26:23;;;;;;;83.82;37.92;;;6.50;99.90;;;;;;5032720;28;20033;-80
2022/03/29 03:28:49;;;;;;;80.18;38.33;;;6.50;99.90;;;;;;5024988;28;20030;-80
2022/03/29 03:31:14;;;;;;;91.40;36.30;;;6.50;99.90;;;;;;5019180;28;20450;-80
2022/03/29 03:33:40;;;;;;;81.22;36.30;;;6.40;99.90;;;;;;5029716;28;20036;-79
2022/03/29 03:36:05;;;;;;;82.70;39.33;;;6.40;99.90;;;;;;5026799;28;20152;-79
2022/03/29 03:38:35;;;;;;;83.45;37.30;;;6.40;99.90;;;;;;5031500;28;20057;-79
2022/03/29 03:41:06;;;;;;;86.03;36.08;;;6.40;99.90;;;;;;5025846;28;20056;-79
2022/03/29 03:43:32;;;;;;;79.50;35.88;;;6.40;99.90;;;;;;5022869;28;20030;-79
2022/03/29 03:45:57;;;;;;;81.95;37.13;;;6.40;99.90;;;;;;5016633;28;20029;-79
2022/03/29 03:48:25;;;;;;;82.35;37.50;;;6.40;99.90;;;;;;5017733;28;20489;-79
2022/03/29 03:50:50;;;;;;;91.65;34.58;;;6.40;99.90;;;;;;5032278;28;20030;-80
2022/03/29 03:53:24;;;;;;;77.38;32.97;;;6.40;99.90;;;;;;5022878;28;20393;-80
2022/03/29 03:55:49;;;;;;;114.95;36.83;;;6.40;99.90;;;;;;5023041;28;20030;-79
2022/03/29 03:58:17;;;;;;;79.13;37.83;;;6.40;99.90;;;;;;5022749;28;20390;-80
2022/03/29 04:00:45;;;;;;;89.35;37.60;;;6.40;99.90;;;;;;5018744;28;20040;-79
2022/03/29 04:03:14;;;;;;;80.50;36.13;;;6.40;99.90;;;;;;5021430;28;20037;-80
2022/03/29 04:05:46;;;;;;;107.43;38.42;;;6.40;99.90;;;;;;5032498;28;20390;-80
2022/03/29 04:08:12;;;;;;;81.47;35.97;;;6.40;99.90;;;;;;5026739;28;20099;-80
2022/03/29 04:10:38;;;;;;;86.55;35.63;;;6.40;99.90;;;;;;5017269;28;20456;-80
2022/03/29 04:13:04;;;;;;;77.28;32.72;;;6.40;99.90;;;;;;5020396;28;20432;-81
2022/03/29 04:15:30;;;;;;;87.43;34.88;;;6.40;99.90;;;;;;5020604;28;20030;-79
2022/03/29 04:17:57;;;;;;;93.63;34.92;;;6.40;99.90;;;;;;5023973;28;20195;-79
2022/03/29 04:20:22;;;;;;;83.68;34.05;;;6.40;99.90;;;;;;5028960;28;20052;-79
2022/03/29 04:22:50;;;;;;;82.30;33.42;;;6.30;99.90;;;;;;5029412;28;20448;-80
2022/03/29 04:25:16;;;;;;;81.40;31.95;;;6.40;99.90;;;;;;5026596;28;20500;-80
2022/03/29 04:27:44;;;;;;;88.88;34.63;;;6.40;99.90;;;;;;5017249;28;20113;-79
2022/03/29 04:30:10;;;;;;;82.05;36.30;;;6.40;99.90;;;;;;5012603;28;20041;-79
2022/03/29 04:32:37;;;;;;;92.13;33.35;;;6.40;99.90;;;;;;5008904;28;20425;-80
2022/03/29 04:35:21;;;;;;;97.03;34.33;;;6.40;99.90;;;;;;5017720;28;20053;-80
2022/03/29 04:37:47;;;;;;;78.50;33.15;;;6.30;99.90;;;;;;5021600;28;20032;-80
2022/03/29 04:40:12;;;;;;;60.78;29.10;;;6.30;99.90;;;;;;5017335;28;20026;-81
2022/03/29 04:42:45;;;;;;;92.78;35.22;;;6.30;99.90;;;;;;5026739;28;20041;-80
2022/03/29 04:45:15;;;;;;;85.97;33.38;;;6.30;99.90;;;;;;5032297;28;20028;-81
2022/03/29 04:47:44;;;;;;;74.93;33.97;;;6.20;99.90;;;;;;5017374;28;20513;-81
2022/03/29 04:50:17;;;;;;;73.32;32.75;;;6.30;99.90;;;;;;5029404;28;20060;-81
2022/03/29 04:52:46;;;;;;;82.90;32.95;;;6.20;99.90;;;;;;5024722;28;20032;-80
2022/03/29 04:55:12;;;;;;;77.38;34.05;;;6.20;99.90;;;;;;5024049;28;20038;-81
2022/03/29 04:57:41;;;;;;;91.18;36.78;;;6.20;99.90;;;;;;5030373;28;20465;-81
2022/03/29 05:00:12;;;;;;;82.93;35.53;;;6.20;99.90;;;;;;5030106;28;20436;-81
2022/03/29 05:02:43;;;;;;;139.35;38.83;;;6.20;99.90;;;;;;5034629;28;20060;-80
2022/03/29 05:05:12;;;;;;;109.40;36.03;;;6.20;99.90;;;;;;5014134;28;20033;-81
2022/03/29 05:07:38;;;;;;;75.50;32.70;;;6.20;99.90;;;;;;5022493;28;20026;-81
2022/03/29 05:10:05;;;;;;;76.15;32.08;;;6.20;99.90;;;;;;5030395;28;20084;-81
2022/03/29 05:12:41;;;;;;;87.60;33.60;;;6.20;99.90;;;;;;5021034;28;20034;-81
2022/03/29 05:15:10;;;;;;;94.90;34.42;;;6.20;99.90;;;;;;5029996;28;20389;-81
2022/03/29 05:17:43;;;;;;;78.53;33.08;;;6.20;99.90;;;;;;5014729;28;20079;-80
2022/03/29 05:20:10;;;;;;;71.85;32.33;;;6.20;99.90;;;;;;5026033;28;20040;-81
2022/03/29 05:22:52;;;;;;;76.25;33.67;;;6.20;99.90;;;;;;5013607;28;20852;-80
2022/03/29 05:25:21;;;;;;;67.17;32.87;;;6.20;99.90;;;;;;5017902;28;20508;-80
2022/03/29 05:27:47;;;;;;;95.75;36.70;;;6.20;99.90;;;;;;5020753;28;20276;-80
2022/03/29 05:30:17;;;;;;;71.60;31.83;;;6.20;99.90;;;;;;5023031;28;20493;-79
2022/03/29 05:32:42;;;;;;;82.72;33.58;;;6.20;99.90;;;;;;5017036;28;20080;-80
2022/03/29 05:35:10;;;;;;;76.32;34.38;;;6.20;99.90;;;;;;5030140;28;20022;-79
2022/03/29 05:37:39;;;;;;;83.15;33.13;;;6.20;99.90;;;;;;5018188;28;20037;-79
2022/03/29 05:40:09;;;;;;;81.72;32.85;;;6.20;99.90;;;;;;5021613;28;20176;-79
2022/03/29 05:42:43;;;;;;;143.85;37.58;;;6.20;99.90;;;;;;5017198;28;20037;-79
2022/03/29 05:45:10;;;;;;;86.03;34.38;;;6.20;99.90;;;;;;5020958;28;20033;-79
2022/03/29 05:50:25;;;;;;;75.95;32.72;;;6.20;99.90;;;;;;5023557;28;20085;-80
2022/03/29 05:52:52;;;;;;;72.35;31.50;;;6.30;99.90;;;;;;5025582;28;20017;-81
2022/03/29 05:55:17;;;;;;;99.38;35.38;;;6.30;99.90;;;;;;5025461;28;20044;-81
2022/03/29 05:57:50;;;;;;;89.53;33.40;;;6.30;99.90;;;;;;5022655;28;20087;-80
2022/03/29 06:00:18;;;;;;;94.28;34.90;;;6.20;99.90;;;;;;5023833;28;20563;-79
2022/03/29 06:02:44;;;;;;;93.20;33.97;;;6.20;99.90;;;;;;5017800;28;20041;-79
2022/03/29 06:05:10;;;;;;;74.47;33.90;;;6.20;99.90;;;;;;5023405;28;20392;-78
2022/03/29 06:07:38;;;;;;;96.55;36.13;;;6.20;99.90;;;;;;5023704;28;20057;-80
2022/03/29 06:10:07;;;;;;;76.47;31.48;;;6.20;99.90;;;;;;5022254;28;20500;-78
2022/03/29 06:12:36;;;;;;;94.15;35.25;;;6.30;99.90;;;;;;5014330;28;20030;-79
2022/03/29 06:15:03;;;;;;;80.90;35.05;;;6.20;99.90;;;;;;5016288;28;20025;-78
2022/03/29 06:17:31;;;;;;;84.00;36.15;;;6.30;99.90;;;;;;5013461;28;20516;-80
2022/03/29 06:19:59;;;;;;;91.93;36.20;;;6.30;99.90;;;;;;5027098;28;20025;-80
2022/03/29 06:22:31;;;;;;;80.93;35.38;;;6.30;99.90;;;;;;5024757;28;20455;-80
2022/03/29 06:24:59;;;;;;;78.03;33.22;;;6.40;99.90;;;;;;5020433;28;20393;-80
2022/03/29 06:27:26;;;;;;;85.22;36.33;;;6.40;99.90;;;;;;5020027;28;20032;-79
2022/03/29 06:29:57;;;;;;;79.85;32.85;;;6.40;99.90;;;;;;5015813;28;20083;-80
2022/03/29 06:32:26;;;;;;;86.20;35.05;;;6.50;99.90;;;;;;5022089;28;20108;-80
2022/03/29 06:34:54;;;;;;;95.18;36.08;;;6.40;99.90;;;;;;5024209;28;20092;-80
2022/03/29 06:37:22;;;;;;;83.53;34.58;;;6.40;99.90;;;;;;5029375;28;20076;-79
2022/03/29 06:39:47;;;;;;;88.32;37.30;;;6.40;99.90;;;;;;5026927;28;20036;-80
2022/03/29 06:42:18;;;;;;;88.65;36.45;;;6.50;99.90;;;;;;5019895;28;20404;-80
2022/03/29 06:44:47;;;;;;;92.32;37.03;;;6.50;99.90;;;;;;5027654;28;20071;-80
2022/03/29 06:47:13;;;;;;;84.72;36.78;;;6.50;99.90;;;;;;5017661;28;20033;-79
2022/03/29 06:49:42;;;;;;;89.15;35.72;;;6.50;99.90;;;;;;5016381;28;20022;-79
2022/03/29 06:52:08;;;;;;;93.35;37.10;;;6.60;99.90;;;;;;5026456;28;20040;-80
2022/03/29 06:54:33;;;;;;;79.85;34.63;;;6.70;99.90;;;;;;5028712;28;20034;-79
2022/03/29 06:56:59;;;;;;;92.68;36.55;;;6.70;99.90;;;;;;5023997;28;20021;-79
2022/03/29 06:59:25;;;;;;;84.90;34.97;;;6.70;99.90;;;;;;5024104;28;20117;-79
2022/03/29 07:01:58;;;;;;;85.13;33.60;;;6.70;99.90;;;;;;5019563;28;20526;-79
2022/03/29 07:04:24;;;;;;;78.35;31.73;;;6.80;99.90;;;;;;5025971;28;20137;-79
2022/03/29 07:06:49;;;;;;;91.00;35.78;;;6.80;99.90;;;;;;5026008;28;20128;-79
2022/03/29 07:12:04;;;;;;;80.40;33.42;;;6.80;99.90;;;;;;5020569;28;20119;-87
2022/03/29 07:14:30;;;;;;;91.15;36.08;;;6.80;99.90;;;;;;5023071;28;20559;-83
2022/03/29 07:16:59;;;;;;;87.20;35.88;;;6.90;99.90;;;;;;5022875;28;20092;-81
2022/03/29 07:19:27;;;;;;;96.15;36.67;;;6.90;99.90;;;;;;5017074;28;20029;-83
2022/03/29 07:21:53;;;;;;;92.15;37.60;;;6.90;99.90;;;;;;5016817;28;20507;-81
2022/03/29 07:24:21;;;;;;;82.97;34.85;;;6.90;99.90;;;;;;5019059;28;20025;-82
2022/03/29 07:26:49;;;;;;;86.90;36.35;;;6.90;99.90;;;;;;5023669;28;20022;-81
2022/03/29 07:29:36;;;;;;;84.40;33.97;;;6.90;99.90;;;;;;5024097;28;20156;-80
2022/03/29 07:32:02;;;;;;;89.72;36.67;;;6.90;99.90;;;;;;5022202;28;20104;-82
2022/03/29 07:34:29;;;;;;;93.80;36.35;;;6.90;99.90;;;;;;5023331;28;20124;-82
2022/03/29 07:36:56;;;;;;;93.97;36.05;;;7.00;99.90;;;;;;5027810;28;20022;-82
2022/03/29 07:39:22;;;;;;;88.80;35.90;;;7.00;99.90;;;;;;5017456;28;20048;-82
2022/03/29 07:41:48;;;;;;;83.82;34.97;;;7.00;99.90;;;;;;5041445;28;20030;-83
2022/03/29 07:44:13;;;;;;;95.85;38.47;;;7.00;99.90;;;;;;5026836;28;20493;-81
2022/03/29 07:46:39;;;;;;;86.28;35.38;;;7.00;99.90;;;;;;5027633;28;20053;-82
2022/03/29 07:49:05;;;;;;;80.35;34.40;;;7.00;99.90;;;;;;5018176;28;20037;-81
2022/03/29 07:51:30;;;;;;;96.82;36.72;;;7.00;99.90;;;;;;5025246;28;20124;-81
2022/03/29 07:54:03;;;;;;;86.97;34.22;;;7.00;99.90;;;;;;5020519;28;20048;-82
2022/03/29 07:56:29;;;;;;;85.95;36.03;;;7.00;99.90;;;;;;5018612;28;20046;-81
2022/03/29 07:58:56;;;;;;;83.88;34.40;;;6.90;99.90;;;;;;5018773;28;20032;-82
2022/03/29 08:01:22;;;;;;;88.63;36.47;;;7.00;99.90;;;;;;5017156;28;20084;-81
2022/03/29 08:03:48;;;;;;;81.00;34.60;;;7.00;99.90;;;;;;5021289;28;20539;-80
2022/03/29 08:06:13;;;;;;;74.28;31.27;;;7.00;99.90;;;;;;5026640;28;20033;-86
2022/03/29 08:08:40;;;;;;;76.82;34.20;;;7.10;99.90;;;;;;5024535;28;20034;-85
2022/03/29 08:11:08;;;;;;;69.28;30.05;;;7.10;99.90;;;;;;5024460;28;20038;-86
2022/03/29 08:13:34;;;;;;;69.97;32.53;;;7.20;99.90;;;;;;5021998;28;20036;-83
2022/03/29 08:16:01;;;;;;;75.22;33.22;;;7.20;99.90;;;;;;5021068;28;20037;-83
2022/03/29 08:18:28;;;;;;;79.85;34.90;;;7.30;99.90;;;;;;5021198;28;20061;-85
2022/03/29 08:20:56;;;;;;;81.85;34.67;;;7.30;99.90;;;;;;5028461;28;20068;-84
2022/03/29 08:23:22;;;;;;;76.95;34.20;;;7.40;99.90;;;;;;5023632;28;20022;-88
2022/03/29 08:25:48;;;;;;;76.25;33.22;;;7.30;99.90;;;;;;5034725;28;20025;-85
2022/03/29 08:28:25;;;;;;;;;;;;;;;;;;;;;
2022/03/29 08:30:51;;;;;;;67.25;30.35;;;7.40;99.90;;;;;;5011961;28;20034;-87
2022/03/29 08:33:19;;;;;;;81.40;34.90;;;7.40;99.90;;;;;;5023744;28;20492;-86
2022/03/29 08:35:47;;;;;;;69.43;32.00;;;7.40;99.90;;;;;;5018200;28;20478;-84
2022/03/29 08:38:15;;;;;;;68.68;33.53;;;7.40;99.90;;;;;;5027923;28;20057;-85
2022/03/29 08:40:47;;;;;;;67.60;31.45;;;7.40;99.90;;;;;;5032040;28;20091;-84
2022/03/29 08:43:19;;;;;;;70.93;32.40;;;7.30;99.90;;;;;;5029308;28;20045;-83
2022/03/29 08:45:50;;;;;;;70.18;33.85;;;7.30;99.90;;;;;;5026660;28;20033;-84
2022/03/29 08:48:18;;;;;;;74.82;33.95;;;7.30;99.90;;;;;;5031756;28;20037;-83
2022/03/29 08:50:45;;;;;;;74.50;37.00;;;7.30;99.90;;;;;;5026402;28;20048;-83
2022/03/29 08:53:17;;;;;;;82.38;38.10;;;7.40;99.90;;;;;;5028154;28;20032;-82
2022/03/29 08:55:44;;;;;;;72.43;34.90;;;7.40;99.90;;;;;;5024653;28;20037;-77
2022/03/29 08:58:10;;;;;;;71.97;34.28;;;7.40;99.90;;;;;;5027105;28;20394;-75
2022/03/29 09:00:36;;;;;;;70.38;33.35;;;7.40;99.90;;;;;;5025454;28;20026;-76
2022/03/29 09:03:03;;;;;;;73.55;34.67;;;7.50;99.90;;;;;;5023353;28;20037;-77
2022/03/29 09:05:32;;;;;;;73.22;35.83;;;7.50;99.90;;;;;;5020724;28;20029;-77
2022/03/29 09:08:03;;;;;;;75.03;36.75;;;7.60;99.90;;;;;;5026635;28;20022;-77
2022/03/29 09:10:45;;;;;;;69.07;35.50;;;7.60;99.90;;;;;;5026950;28;20030;-78
2022/03/29 09:13:28;;;;;;;67.32;34.83;;;7.80;99.90;;;;;;5023590;28;20366;-78
2022/03/29 09:15:58;;;;;;;65.55;32.70;;;8.00;99.90;;;;;;5026588;28;20036;-78
2022/03/29 09:18:25;;;;;;;61.60;30.67;;;8.20;99.90;;;;;;5022494;28;20030;-75
2022/03/29 09:21:11;;;;;;;59.10;31.38;;;8.20;99.90;;;;;;5026792;28;20042;-77
2022/03/29 09:23:37;;;;;;;61.38;30.35;;;8.30;99.90;;;;;;5026565;28;20033;-77
2022/03/29 09:26:04;;;;;;;64.90;33.35;;;8.30;99.90;;;;;;5025392;28;20037;-78
2022/03/29 09:28:35;;;;;;;65.63;33.85;;;8.50;99.90;;;;;;5027051;28;20030;-77
2022/03/29 09:31:01;;;;;;;59.25;30.65;;;8.60;99.90;;;;;;5023173;28;20371;-78
2022/03/29 09:33:32;;;;;;;59.17;31.38;;;8.60;99.90;;;;;;5011826;28;20042;-77
2022/03/29 09:36:05;;;;;;;60.17;31.77;;;8.70;99.90;;;;;;5024985;28;20555;-79
2022/03/29 09:38:35;;;;;;;60.75;30.75;;;8.90;99.90;;;;;;5026970;28;20030;-78
2022/03/29 09:41:03;;;;;;;50.00;28.75;;;9.00;99.90;;;;;;5026802;28;20453;-79
2022/03/29 09:43:31;;;;;;;55.05;29.58;;;9.20;99.90;;;;;;5023003;28;20033;-78
2022/03/29 09:46:02;;;;;;;52.50;28.75;;;9.20;99.90;;;;;;5024836;28;20026;-78
2022/03/29 09:48:41;;;;;;;51.05;28.35;;;9.20;99.90;;;;;;5022136;28;20048;-78
2022/03/29 09:51:10;;;;;;;53.67;28.38;;;9.10;99.90;;;;;;5027009;28;20104;-77
2022/03/29 09:53:41;;;;;;;51.95;28.00;;;8.90;99.90;;;;;;5024233;28;20040;-78
2022/03/29 09:56:10;;;;;;;51.28;28.60;;;8.80;99.90;;;;;;5017027;28;20488;-77
2022/03/29 09:58:36;;;;;;;54.67;27.65;;;8.70;99.90;;;;;;5026617;28;20079;-78
2022/03/29 10:01:03;;;;;;;57.63;29.77;;;8.80;99.90;;;;;;5025145;28;20040;-78
2022/03/29 10:03:31;;;;;;;54.40;30.08;;;8.90;99.90;;;;;;5026085;28;20087;-78
2022/03/29 10:06:07;;;;;;;47.63;24.55;;;8.90;99.90;;;;;;5021333;28;20117;-79
2022/03/29 10:11:27;;;;;;;50.25;26.23;;;8.90;99.90;;;;;;5026926;28;20515;-78
2022/03/29 10:13:53;;;;;;;50.60;27.65;;;8.90;99.90;;;;;;5023188;28;20460;-78
2022/03/29 10:16:19;;;;;;;46.72;25.73;;;9.00;99.90;;;;;;5022589;28;20029;-78
2022/03/29 10:18:48;;;;;;;51.97;26.80;;;9.10;99.90;;;;;;5022637;28;20026;-78
2022/03/29 10:21:15;;;;;;;50.83;28.73;;;9.30;99.90;;;;;;5021628;28;20656;-78
2022/03/29 10:23:46;;;;;;;51.38;29.52;;;9.50;99.90;;;;;;5019537;28;20045;-78
2022/03/29 10:26:16;;;;;;;57.03;30.42;;;9.70;99.90;;;;;;5024107;28;20106;-79
2022/03/29 10:28:42;;;;;;;44.35;26.35;;;9.90;99.90;;;;;;5022391;28;20120;-79
2022/03/29 10:31:42;;;;;;;47.67;28.02;;;10.10;99.90;;;;;;5019584;28;20030;-80
2022/03/29 10:34:25;;;;;;;45.53;25.90;;;10.40;99.90;;;;;;5019730;28;20045;-79
2022/03/29 10:37:21;;;;;;;48.92;27.45;;;10.60;99.90;;;;;;5021807;28;20028;-79
2022/03/29 10:40:05;;;;;;;48.45;27.60;;;10.60;99.90;;;;;;5023516;28;20557;-79
2022/03/29 10:42:44;;;;;;;49.72;26.83;;;10.60;99.90;;;;;;5015821;28;20501;-79
2022/03/29 10:45:12;;;;;;;45.08;27.63;;;10.70;99.90;;;;;;5019408;28;20374;-80
2022/03/29 10:47:38;;;;;;;45.45;28.17;;;10.90;99.90;;;;;;5021559;28;20034;-78
2022/03/29 10:50:06;;;;;;;46.97;27.52;;;10.80;99.90;;;;;;5020306;28;20057;-78
2022/03/29 10:52:44;;;;;;;48.50;27.40;;;11.00;99.90;;;;;;5016313;28;20044;-77
2022/03/29 10:55:21;;;;;;;51.10;29.83;;;11.20;99.90;;;;;;5010929;28;20029;-78
2022/03/29 10:58:07;;;;;;;48.33;28.27;;;11.40;99.90;;;;;;5017845;28;20042;-77
2022/03/29 11:00:39;;;;;;;49.70;28.60;;;11.70;99.90;;;;;;5020583;28;20109;-77
2022/03/29 11:03:23;;;;;;;56.03;29.58;;;11.60;99.90;;;;;;5021711;28;20116;-78
2022/03/29 11:06:06;;;;;;;49.10;29.00;;;11.50;99.90;;;;;;5020750;28;20519;-78
2022/03/29 11:08:31;;;;;;;;;;;11.50;99.90;;;;;;5023039;28;20030;-78
2022/03/29 11:11:00;;;;;;;46.72;29.35;;;11.40;99.90;;;;;;5019703;28;19916;-78
2022/03/29 11:13:37;;;;;;;49.83;29.60;;;11.40;99.90;;;;;;5023890;28;20063;-78
2022/03/29 11:16:25;;;;;;;53.45;29.48;;;11.40;99.90;;;;;;5028852;28;20072;-78
2022/03/29 11:18:52;;;;;;;52.88;30.42;;;11.20;99.90;;;;;;5030700;28;20489;-78
2022/03/29 11:21:30;;;;;;;51.92;28.92;;;11.10;99.90;;;;;;5025072;28;20054;-77
2022/03/29 11:23:59;;;;;;;49.30;28.38;;;11.10;99.90;;;;;;5023867;28;20304;-77
2022/03/29 11:26:24;;;;;;;48.13;29.25;;;11.10;99.90;;;;;;5034703;28;20115;-78
2022/03/29 11:28:58;;;;;;;45.72;25.50;;;11.10;99.90;;;;;;5021830;28;20117;-78
2022/03/29 11:31:31;;;;;;;51.03;28.98;;;11.10;99.90;;;;;;5025324;28;20477;-78
2022/03/29 11:33:57;;;;;;;49.67;28.67;;;11.10;99.90;;;;;;5028236;28;20100;-77
2022/03/29 11:36:25;;;;;;;51.67;28.08;;;11.10;99.90;;;;;;5026966;28;20117;-77
2022/03/29 11:38:51;;;;;;;57.85;30.13;;;11.10;99.90;;;;;;5027943;28;20025;-77
2022/03/29 11:41:30;;;;;;;55.95;30.85;;;11.00;99.90;;;;;;5031166;28;20068;-76
2022/03/29 11:44:06;;;;;;;59.47;30.92;;;11.00;99.90;;;;;;5018789;28;20076;-77
2022/03/29 11:46:53;;;;;;;53.53;30.38;;;11.00;99.90;;;;;;5027073;28;20021;-78
2022/03/29 11:49:20;;;;;;;51.08;29.60;;;11.10;99.90;;;;;;5024783;28;20030;-77
2022/03/29 11:52:11;;;;;;;54.80;29.88;;;11.30;99.90;;;;;;5022726;28;20084;-77
2022/03/29 11:54:53;;;;;;;58.85;31.98;;;11.50;99.90;;;;;;5021268;28;20029;-77
2022/03/29 11:57:26;;;;;;;54.05;29.92;;;11.50;99.90;;;;;;5031262;28;20528;-78
2022/03/29 11:59:53;;;;;;;58.03;31.60;;;11.60;99.90;;;;;;5017505;28;20022;-77
2022/03/29 12:02:22;;;;;;;52.58;27.30;;;11.50;99.90;;;;;;5021409;28;20034;-77
2022/03/29 12:04:49;;;;;;;56.40;30.13;;;11.60;99.90;;;;;;5025554;28;20040;-76
2022/03/29 12:07:15;;;;;;;51.67;29.55;;;11.70;99.90;;;;;;5018512;28;20091;-75
2022/03/29 12:09:46;;;;;;;53.63;31.20;;;11.70;99.90;;;;;;5025964;28;20029;-75
2022/03/29 12:12:14;;;;;;;57.83;31.90;;;11.70;99.90;;;;;;5015568;28;20034;-78
2022/03/29 12:14:42;;;;;;;55.30;30.98;;;11.80;99.90;;;;;;5025768;28;20057;-77
2022/03/29 12:17:12;;;;;;;52.15;28.48;;;11.80;99.90;;;;;;5014165;28;20022;-77
2022/03/29 12:19:39;;;;;;;50.50;30.02;;;11.90;99.90;;;;;;5019126;28;20105;-77
2022/03/29 12:22:10;;;;;;;48.75;29.02;;;12.00;99.90;;;;;;5022349;28;20072;-77
2022/03/29 12:24:44;;;;;;;50.63;29.02;;;12.10;99.90;;;;;;5023216;28;20102;-77
2022/03/29 12:27:14;;;;;;;50.92;28.77;;;12.20;99.90;;;;;;5023266;28;20425;-77
2022/03/29 12:29:53;;;;;;;45.83;28.40;;;12.30;99.90;;;;;;5020338;28;20112;-78
2022/03/29 12:32:20;;;;;;;50.22;30.05;;;12.40;99.90;;;;;;5021227;28;20025;-78
2022/03/29 12:35:05;;;;;;;50.47;29.15;;;12.50;99.90;;;;;;5015958;28;20443;-77
2022/03/29 12:37:31;;;;;;;46.78;29.15;;;12.60;99.90;;;;;;5015355;28;20073;-78
2022/03/29 12:40:09;;;;;;;51.22;29.30;;;12.50;99.90;;;;;;5022817;28;20079;-78
2022/03/29 12:42:35;;;;;;;45.72;27.15;;;12.50;99.50;;;;;;5023570;28;20067;-78
2022/03/29 12:45:08;;;;;;;44.25;25.90;;;12.50;99.30;;;;;;5023080;28;20021;-77
2022/03/29 12:47:33;;;;;;;;;;;12.60;98.90;;;;;;5025956;28;20052;-77
2022/03/29 12:50:03;;;;;;;45.28;27.10;;;12.50;98.20;;;;;;5020155;28;20316;-79
2022/03/29 12:52:42;;;;;;;46.22;27.50;;;12.40;97.50;;;;;;5024983;28;20028;-82
2022/03/29 12:55:18;;;;;;;46.13;27.65;;;12.40;97.50;;;;;;5019622;28;20367;-81
2022/03/29 12:57:45;;;;;;;43.38;26.73;;;12.40;97.30;;;;;;5028638;28;20140;-82
2022/03/29 13:00:15;;;;;;;40.72;26.23;;;12.50;97.00;;;;;;5019892;28;20044;-80